Latest Weather Observations for Bundaberg

IDQ60801

Issued at 11:35 pm EST Thursday 24 April 2014 (issued every 30 minutes, with the page automatically refreshed every 10 minutes)

About weather observations | Map of weather stations | Latest weather observations for QLD | Other Formats
Station Details ID: 039128 Name: BUNDABERG AERO Lat: -24.91 Lon: 152.32 Height: 30.82 m
Data from the previous 72 hours. | See also: Recent months at Bundaberg
Date/Time
EST
Temp
°C
App
Temp
°C
Dew
Point
Rel
Hum
%
Delta-T
°C
Wind Press
QNH
hPa
Press
MSL
hPa
Rain
since 9 am
mm
Dir
 
Spd
km/h
Gust
km/h
Spd
kts
Gust
kts
24/11:30pm 19.6 20.8 18.3 92 0.8 S 9 13 5 7 1015.9 - 0.0
24/11:00pm 19.7 20.9 18.2 91 0.9 S 9 13 5 7 1016.1 - 0.0
24/10:30pm 19.6 21.0 17.9 90 1.0 S 7 9 4 5 1016.2 - 0.0
24/10:00pm 20.3 21.7 18.6 90 1.1 S 9 13 5 7 1016.3 - 0.0
24/09:30pm 19.7 21.3 18.2 91 0.9 S 7 9 4 5 1016.4 - 0.0
24/09:00pm 19.8 21.3 18.1 90 1.1 SSE 7 9 4 5 1016.4 1016.2 0.0
24/08:30pm 20.3 22.0 18.4 89 1.2 SE 7 9 4 5 1016.1 - 0.0
24/08:00pm 21.2 22.7 18.9 87 1.4 SSE 9 11 5 6 1015.8 - 0.0
24/07:30pm 21.1 22.5 18.7 86 1.5 ESE 9 9 5 5 1015.6 - 0.0
24/07:00pm 21.7 23.0 18.5 82 2.0 ESE 9 13 5 7 1015.1 - 0.0
24/06:30pm 22.8 23.2 19.0 79 2.4 ESE 15 20 8 11 1014.9 - 0.0
24/06:00pm 23.3 23.4 19.2 78 2.6 ESE 17 20 9 11 1014.7 1014.5 0.0
24/05:30pm 23.6 24.5 18.5 73 3.2 E 11 15 6 8 1014.3 - 0.0
24/05:00pm 24.8 24.7 17.8 65 4.4 E 15 20 8 11 1013.9 - 0.0
24/04:30pm 25.4 23.8 16.0 56 5.7 E 19 24 10 13 1013.7 - 0.0
24/04:00pm 26.5 25.2 16.7 55 6.1 E 19 24 10 13 1013.5 - 0.0
24/03:30pm 26.7 25.0 16.3 53 6.4 E 20 24 11 13 1013.3 - 0.0
24/03:00pm 27.5 26.3 16.1 49 7.0 ESE 17 20 9 11 1013.0 1012.8 0.0
24/02:30pm 27.3 25.8 16.3 51 6.8 SE 19 26 10 14 1013.1 - 0.0
24/02:00pm 26.1 26.1 17.2 58 5.6 E 13 20 7 11 1013.5 - 0.0
24/01:30pm 25.6 25.6 18.0 63 4.8 SE 15 22 8 12 1013.9 - 0.0
24/01:00pm 26.1 25.7 18.0 61 5.1 ESE 17 24 9 13 1014.2 - 0.0
24/12:30pm 26.6 25.5 17.4 57 5.8 ESE 19 24 10 13 1014.7 - 0.0
24/12:00pm 26.7 26.8 19.1 63 4.9 SE 17 22 9 12 1015.0 1014.8 0.0
24/11:30am 25.8 25.8 19.0 66 4.4 SSE 17 24 9 13 1015.5 - 0.0
24/11:00am 25.2 25.9 19.6 71 3.6 SSE 15 22 8 12 1016.2 - 0.0
24/10:30am 23.2 23.6 18.1 73 3.2 S 13 20 7 11 1016.7 - 0.0
24/10:00am 22.4 22.7 18.0 76 2.7 S 13 17 7 9 1017.2 - 0.0
24/09:30am 21.6 22.5 18.4 82 2.0 S 11 15 6 8 1017.1 - 0.0
24/09:00am 20.9 21.7 18.1 84 1.7 S 11 17 6 9 1017.3 1017.1 0.0
24/08:30am 20.3 21.3 17.7 85 1.6 S 9 13 5 7 1016.8 - 0.0
24/08:00am 19.6 20.2 17.6 88 1.2 S 11 17 6 9 1016.3 - 0.0
24/07:30am 18.8 19.2 17.3 91 0.9 S 11 15 6 8 1015.9 - 0.0
24/07:00am 18.7 19.1 17.2 91 0.9 S 11 13 6 7 1016.1 - 0.0
24/06:30am 18.6 18.9 17.1 91 0.9 S 11 15 6 8 1015.9 - 0.0
24/06:00am 18.5 19.2 17.0 91 0.9 S 9 13 5 7 1015.9 1015.7 0.0
24/05:30am 18.6 18.9 17.1 91 0.9 SSW 11 15 6 8 1015.1 - 0.0
24/05:00am 18.5 19.2 17.0 91 0.9 SSW 9 13 5 7 1014.9 - 0.0
24/04:30am 18.4 18.7 17.1 92 0.8 SSW 11 13 6 7 1014.8 - 0.0
24/04:00am 18.6 19.3 17.1 91 0.9 SSW 9 13 5 7 1014.5 - 0.0
24/03:30am 18.8 19.2 17.3 91 0.9 S 11 13 6 7 1014.8 - 0.0
24/03:00am 18.6 19.3 17.1 91 0.9 S 9 11 5 6 1015.2 1015.0 0.0
24/02:30am 18.9 19.4 17.4 91 0.9 S 11 13 6 7 1014.9 - 0.0
24/02:00am 19.1 19.7 17.6 91 0.9 S 11 15 6 8 1015.4 - 0.0
24/01:30am 19.2 19.5 17.9 92 0.8 S 13 15 7 8 1015.8 - 0.0
24/01:00am 19.2 19.9 18.0 93 0.7 S 11 15 6 8 1016.2 - 0.0
24/12:30am 19.3 20.0 18.0 92 0.8 S 11 15 6 8 1016.5 - 0.0
24/12:00am 19.5 20.2 18.0 91 0.9 S 11 13 6 7 1016.8 1016.6 0.0
 
Date/Time
EST
Temp
°C
App
Temp
°C
Dew
Point
Rel
Hum
%
Delta-T
°C
Wind Press
QNH
hPa
Press
MSL
hPa
Rain
since 9 am
mm
Dir
 
Spd
km/h
Gust
km/h
Spd
kts
Gust
kts
23/11:30pm 19.7 20.8 18.0 90 1.0 S 9 11 5 6 1017.2 - 0.0
23/11:00pm 20.2 21.1 18.3 89 1.2 S 11 15 6 8 1017.2 - 0.0
23/10:30pm 20.7 22.2 18.8 89 1.2 S 9 13 5 7 1017.4 - 0.0
23/10:00pm 20.4 22.2 18.7 90 1.1 S 7 9 4 5 1017.5 - 0.0
23/09:30pm 20.7 22.5 18.8 89 1.2 S 7 9 4 5 1017.6 - 0.0
23/09:00pm 21.1 23.0 19.0 88 1.3 SSE 7 9 4 5 1017.5 1017.3 0.0
23/08:30pm 21.5 23.5 19.1 86 1.5 SSE 7 9 4 5 1017.4 - 0.0
23/08:00pm 21.6 24.9 19.2 86 1.5 CALM 0 0 0 0 1017.3 - 0.0
23/07:30pm 21.7 25.0 19.1 85 1.6 CALM 0 0 0 0 1016.9 - 0.0
23/07:00pm 21.8 25.0 18.8 83 1.9 CALM 0 0 0 0 1016.8 - 0.0
23/06:30pm 21.7 24.9 18.9 84 1.8 CALM 0 0 0 0 1016.5 - 0.0
23/06:00pm 22.6 25.7 18.6 78 2.5 CALM 0 0 0 0 1016.3 1016.1 0.0
23/05:30pm 22.6 24.3 18.4 77 2.6 ESE 7 9 4 5 1015.8 - 0.0
23/05:00pm 23.6 25.1 18.0 71 3.5 E 7 9 4 5 1015.8 - 0.0
23/04:30pm 24.0 25.2 18.2 70 3.6 E 9 13 5 7 1015.6 - 0.0
23/04:00pm 24.4 25.6 18.3 69 3.8 E 9 15 5 8 1015.5 - 0.0
23/03:30pm 24.7 24.8 17.4 64 4.5 E 13 19 7 10 1015.4 - 0.0
23/03:00pm 24.8 25.7 19.2 71 3.6 E 13 17 7 9 1015.4 1015.2 0.0
23/02:30pm 24.5 25.1 18.7 70 3.7 E 13 17 7 9 1015.5 - 0.0
23/02:00pm 24.1 24.6 18.3 70 3.7 ENE 13 17 7 9 1015.7 - 0.0
23/01:30pm 23.4 22.5 16.9 67 4.0 ENE 17 22 9 12 1016.0 - 0.0
23/01:00pm 24.6 24.8 18.5 69 3.9 E 15 17 8 9 1016.5 - 0.0
23/12:30pm 25.1 25.5 18.1 65 4.4 ESE 13 20 7 11 1016.6 - 0.0
23/12:00pm 25.3 25.5 19.4 70 3.8 SE 17 20 9 11 1017.1 1016.9 0.0
23/11:30am 24.7 25.5 19.1 71 3.6 SSE 13 19 7 10 1017.8 - 0.0
23/11:00am 24.1 24.3 18.5 71 3.5 SSE 15 20 8 11 1018.2 - 0.0
23/10:30am 23.5 24.2 18.8 75 3.0 SSE 13 19 7 10 1018.4 - 0.0
23/10:00am 22.5 22.7 18.5 78 2.5 S 15 20 8 11 1018.5 - 0.0
23/09:30am 21.8 22.2 18.2 80 2.2 SSE 13 17 7 9 1018.5 - 0.0
23/09:00am 20.8 21.2 18.2 85 1.6 SSE 13 19 7 10 1018.4 1018.3 0.2
23/08:30am 19.9 20.9 17.7 87 1.4 S 9 15 5 8 1018.7 - 0.2
23/08:00am 19.2 20.3 17.2 88 1.2 SSE 7 11 4 6 1018.3 - 0.2
23/07:30am 18.9 19.2 17.0 89 1.2 S 11 15 6 8 1018.4 - 0.2
23/07:00am 18.6 18.9 16.9 90 1.0 S 11 15 6 8 1017.9 - 0.2
23/06:30am 18.5 18.7 16.8 90 1.0 SSE 11 13 6 7 1017.8 - 0.2
23/06:00am 18.7 19.0 17.0 90 1.0 S 11 13 6 7 1018.0 1017.9 0.2
23/05:30am 18.9 19.2 17.0 89 1.2 S 11 15 6 8 1018.0 - 0.2
23/05:00am 19.1 19.9 17.4 90 1.0 S 9 13 5 7 1017.9 - 0.2
23/04:30am 19.0 19.0 17.3 90 1.0 S 13 17 7 9 1017.8 - 0.2
23/04:00am 18.6 18.6 17.1 91 0.9 SSE 13 19 7 10 1017.4 - 0.2
23/03:30am 19.3 19.5 17.6 90 1.0 S 13 22 7 12 1017.5 - 0.0
23/03:00am 20.1 21.2 18.9 93 0.8 SSE 11 20 6 11 1017.2 1017.0 0.0
23/02:30am 18.9 19.3 17.2 90 1.0 SSW 11 13 6 7 1017.7 - 0.0
23/02:00am 18.5 18.8 17.0 91 0.9 SSW 11 13 6 7 1018.0 - 0.0
23/01:30am 18.7 18.6 17.0 90 1.0 SSW 13 17 7 9 1018.0 - 0.0
23/01:00am 18.9 18.8 17.0 89 1.2 S 13 17 7 9 1018.3 - 0.0
23/12:30am 18.8 19.4 16.9 89 1.1 S 9 11 5 6 1018.6 - 0.0
23/12:00am 18.6 19.6 16.8 89 1.1 SSW 7 9 4 5 1018.8 1018.7 0.0
 
Date/Time
EST
Temp
°C
App
Temp
°C
Dew
Point
Rel
Hum
%
Delta-T
°C
Wind Press
QNH
hPa
Press
MSL
hPa
Rain
since 9 am
mm
Dir
 
Spd
km/h
Gust
km/h
Spd
kts
Gust
kts
22/11:30pm 19.3 20.6 17.1 87 1.3 S 6 9 3 5 1018.7 - 0.0
22/11:00pm 18.8 19.4 16.9 89 1.1 S 9 13 5 7 1019.0 - 0.0
22/10:30pm 18.9 21.3 16.9 88 1.2 CALM 0 0 0 0 1019.1 - 0.0
22/10:00pm 18.9 20.0 16.7 87 1.3 SE 6 9 3 5 1019.3 - 0.0
22/09:30pm 19.5 20.7 17.3 87 1.3 S 7 11 4 6 1019.2 - 0.0
22/09:00pm 19.5 21.6 17.1 86 1.5 SSE 2 6 1 3 1019.4 1019.3 0.0
22/08:30pm 19.6 21.7 17.2 86 1.5 S 2 9 1 5 1019.5 - 0.0
22/08:00pm 19.9 21.3 17.3 85 1.6 S 6 9 3 5 1019.4 - 0.0
22/07:30pm 20.7 21.9 17.3 81 2.1 ESE 7 7 4 4 1019.1 - 0.0
22/07:00pm 21.0 21.8 17.4 80 2.2 E 9 11 5 6 1018.9 - 0.0
22/06:30pm 21.1 22.2 16.7 76 2.7 SE 6 7 3 4 1018.7 - 0.0
22/06:00pm 21.8 22.7 16.7 73 3.1 E 7 7 4 4 1018.4 1018.3 0.0
22/05:30pm 22.5 23.0 16.5 69 3.7 E 9 11 5 6 1018.2 - 0.0
22/05:00pm 23.8 23.7 16.1 62 4.7 E 11 15 6 8 1018.0 - 0.0
22/04:30pm 24.6 23.2 15.5 57 5.5 E 17 22 9 12 1018.0 - 0.0
22/04:00pm 25.8 24.6 16.1 55 5.9 E 17 20 9 11 1018.0 - 0.0
22/03:30pm 25.5 24.4 15.2 53 6.2 ENE 15 20 8 11 1017.9 - 0.0
22/03:00pm 26.0 24.6 14.5 49 6.9 ENE 15 22 8 12 1018.0 1017.9 0.0
22/02:30pm 26.4 24.3 14.8 49 7.0 ESE 19 20 10 11 1018.1 - 0.0
22/02:00pm 26.9 25.9 14.6 46 7.4 ENE 13 19 7 10 1018.2 - 0.0
22/01:30pm 26.4 25.1 14.8 49 7.0 ESE 15 22 8 12 1018.4 - 0.0
22/01:00pm 26.1 25.1 14.6 49 6.9 ENE 13 20 7 11 1018.8 - 0.0
22/12:30pm 25.3 24.1 15.0 53 6.2 E 15 24 8 13 1019.1 - 0.0
22/12:00pm 25.2 23.2 14.9 52 6.2 E 19 24 10 13 1019.5 1019.4 0.0
22/11:30am 24.8 23.2 15.1 54 5.8 E 17 20 9 11 1020.1 - 0.0
22/11:00am 24.8 23.6 16.0 58 5.4 E 17 20 9 11 1020.5 - 0.0
22/10:30am 24.8 23.6 16.2 58 5.3 E 17 24 9 13 1020.6 - 0.0
22/10:00am 24.6 24.4 16.8 62 4.8 E 13 17 7 9 1021.0 - 0.0
22/09:30am 24.4 24.0 17.1 63 4.5 ESE 15 19 8 10 1021.0 - 0.0
22/09:00am 22.9 22.5 16.2 66 4.1 SE 13 17 7 9 1021.0 1020.9 0.0
22/08:30am 21.7 21.4 16.4 72 3.2 SSE 13 17 7 9 1021.1 - 0.0
22/08:00am 19.6 19.6 16.3 81 2.0 S 11 15 6 8 1021.2 - 0.0
22/07:30am 18.0 17.0 14.7 81 1.9 S 13 17 7 9 1020.7 - 0.0
22/07:00am 16.7 16.0 14.3 86 1.4 S 11 15 6 8 1020.4 - 0.0
22/06:30am 15.7 14.3 13.5 87 1.2 S 13 19 7 10 1020.3 - 0.0
22/06:00am 15.6 15.0 13.6 88 1.1 S 9 13 5 7 1020.1 1020.0 0.0
22/05:30am 15.9 14.7 14.1 89 1.0 S 13 19 7 10 1020.0 - 0.0
22/05:00am 15.7 14.4 13.7 88 1.1 S 13 17 7 9 1019.6 - 0.0
22/04:30am 15.9 14.2 13.7 87 1.2 S 15 19 8 10 1019.5 - 0.0
22/04:00am 16.0 14.4 13.8 87 1.2 S 15 17 8 9 1019.4 - 0.0
22/03:30am 16.1 14.5 13.9 87 1.2 S 15 17 8 9 1019.5 - 0.0
22/03:00am 16.3 14.7 13.8 85 1.4 S 15 20 8 11 1019.4 1019.3 0.0
22/02:30am 16.5 15.3 14.0 85 1.4 S 13 17 7 9 1019.6 - 0.0
22/02:00am 16.7 15.6 14.2 85 1.4 S 13 17 7 9 1019.7 - 0.0
22/01:30am 16.8 15.3 14.3 85 1.4 S 15 17 8 9 1019.8 - 0.0
22/01:00am 16.9 16.2 14.4 85 1.4 S 11 15 6 8 1019.9 - 0.0
22/12:30am 17.0 17.2 14.8 87 1.3 S 7 9 4 5 1020.1 - 0.0
22/12:00am 16.6 16.8 14.6 88 1.1 SSW 7 9 4 5 1020.5 1020.4 0.0

Other Formats:

Comma delimited format used in spreadsheet applications
http://www.bom.gov.au/fwo/IDQ60801/IDQ60801.94387.axf

JavaScript Object Notation format (JSON) in row-major order
http://www.bom.gov.au/fwo/IDQ60801/IDQ60801.94387.json